sensor_id;sensor_type;location;lat;lon;timestamp;temperature;humidity
6843;DHT22;3460;52.028;8.916;2023-03-01T00:01:00;-2.70;99.90
6843;DHT22;3460;52.028;8.916;2023-03-01T00:03:28;-2.70;99.90
6843;DHT22;3460;52.028;8.916;2023-03-01T00:05:55;-2.70;99.90
6843;DHT22;3460;52.028;8.916;2023-03-01T00:08:21;-2.70;99.90
6843;DHT22;3460;52.028;8.916;2023-03-01T00:10:48;-2.60;99.90
6843;DHT22;3460;52.028;8.916;2023-03-01T00:13:15;-2.70;99.90
6843;DHT22;3460;52.028;8.916;2023-03-01T00:15:42;-2.70;99.90
6843;DHT22;3460;52.028;8.916;2023-03-01T00:18:10;-2.80;99.90
6843;DHT22;3460;52.028;8.916;2023-03-01T00:20:37;-2.80;99.90
6843;DHT22;3460;52.028;8.916;2023-03-01T00:23:04;-2.80;99.90
6843;DHT22;3460;52.028;8.916;2023-03-01T00:25:30;-2.80;99.90
6843;DHT22;3460;52.028;8.916;2023-03-01T00:27:57;-2.90;99.90
6843;DHT22;3460;52.028;8.916;2023-03-01T00:30:24;-2.90;99.90
6843;DHT22;3460;52.028;8.916;2023-03-01T00:32:51;-3.00;99.90
6843;DHT22;3460;52.028;8.916;2023-03-01T00:35:19;-2.90;99.90
6843;DHT22;3460;52.028;8.916;2023-03-01T00:37:46;-2.90;99.90
6843;DHT22;3460;52.028;8.916;2023-03-01T00:40:13;-3.00;99.90
6843;DHT22;3460;52.028;8.916;2023-03-01T00:42:41;-3.00;99.90
6843;DHT22;3460;52.028;8.916;2023-03-01T00:45:09;-3.00;99.90
6843;DHT22;3460;52.028;8.916;2023-03-01T00:47:36;-3.00;99.90
6843;DHT22;3460;52.028;8.916;2023-03-01T00:50:03;-3.10;99.90
6843;DHT22;3460;52.028;8.916;2023-03-01T00:52:31;-3.10;99.90
6843;DHT22;3460;52.028;8.916;2023-03-01T00:54:58;-3.10;99.90
6843;DHT22;3460;52.028;8.916;2023-03-01T00:57:25;-3.20;99.90
6843;DHT22;3460;52.028;8.916;2023-03-01T00:59:52;-3.20;99.90
6843;DHT22;3460;52.028;8.916;2023-03-01T01:02:19;-3.20;99.90
6843;DHT22;3460;52.028;8.916;2023-03-01T01:04:47;-3.10;99.90
6843;DHT22;3460;52.028;8.916;2023-03-01T01:07:14;-3.20;99.90
6843;DHT22;3460;52.028;8.916;2023-03-01T01:09:42;-3.20;99.90
6843;DHT22;3460;52.028;8.916;2023-03-01T01:12:09;-3.30;99.90
6843;DHT22;3460;52.028;8.916;2023-03-01T01:14:36;-3.30;99.90
6843;DHT22;3460;52.028;8.916;2023-03-01T01:17:03;-3.40;99.90
6843;DHT22;3460;52.028;8.916;2023-03-01T01:19:29;-3.40;99.90
6843;DHT22;3460;52.028;8.916;2023-03-01T01:21:56;-3.40;99.90
6843;DHT22;3460;52.028;8.916;2023-03-01T01:24:23;-3.30;99.90
6843;DHT22;3460;52.028;8.916;2023-03-01T01:26:51;-3.30;99.90
6843;DHT22;3460;52.028;8.916;2023-03-01T01:29:18;-3.30;99.90
6843;DHT22;3460;52.028;8.916;2023-03-01T01:31:45;-3.40;99.90
6843;DHT22;3460;52.028;8.916;2023-03-01T01:34:14;-3.30;99.90
6843;DHT22;3460;52.028;8.916;2023-03-01T01:36:41;-3.30;99.90
6843;DHT22;3460;52.028;8.916;2023-03-01T01:39:08;-3.30;99.90
6843;DHT22;3460;52.028;8.916;2023-03-01T01:41:39;-3.40;99.90
6843;DHT22;3460;52.028;8.916;2023-03-01T01:44:16;-3.40;99.90
6843;DHT22;3460;52.028;8.916;2023-03-01T01:46:45;-3.40;99.90
6843;DHT22;3460;52.028;8.916;2023-03-01T01:49:28;-3.40;99.90
6843;DHT22;3460;52.028;8.916;2023-03-01T01:52:01;-3.30;99.90
6843;DHT22;3460;52.028;8.916;2023-03-01T01:54:36;-3.30;99.90
6843;DHT22;3460;52.028;8.916;2023-03-01T01:57:07;-3.40;99.90
6843;DHT22;3460;52.028;8.916;2023-03-01T01:59:37;-3.40;99.90
6843;DHT22;3460;52.028;8.916;2023-03-01T02:02:04;-3.30;99.90
6843;DHT22;3460;52.028;8.916;2023-03-01T02:04:32;-3.30;99.90
6843;DHT22;3460;52.028;8.916;2023-03-01T02:07:03;-3.30;99.90
6843;DHT22;3460;52.028;8.916;2023-03-01T02:09:33;-3.30;99.90
6843;DHT22;3460;52.028;8.916;2023-03-01T02:12:01;-3.30;99.90
6843;DHT22;3460;52.028;8.916;2023-03-01T02:14:28;-3.30;99.90
6843;DHT22;3460;52.028;8.916;2023-03-01T02:16:56;-3.40;99.90
6843;DHT22;3460;52.028;8.916;2023-03-01T02:19:34;-3.50;99.90
6843;DHT22;3460;52.028;8.916;2023-03-01T02:22:07;-3.60;99.90
6843;DHT22;3460;52.028;8.916;2023-03-01T02:24:40;-3.70;99.90
6843;DHT22;3460;52.028;8.916;2023-03-01T02:27:12;-3.70;99.90
6843;DHT22;3460;52.028;8.916;2023-03-01T02:29:40;-3.60;99.90
6843;DHT22;3460;52.028;8.916;2023-03-01T02:32:11;-3.70;99.90
6843;DHT22;3460;52.028;8.916;2023-03-01T02:34:38;-3.70;99.90
6843;DHT22;3460;52.028;8.916;2023-03-01T02:37:08;-3.70;99.90
6843;DHT22;3460;52.028;8.916;2023-03-01T02:39:39;-3.60;99.90
6843;DHT22;3460;52.028;8.916;2023-03-01T02:42:09;-3.70;99.90
6843;DHT22;3460;52.028;8.916;2023-03-01T02:44:37;-3.80;99.90
6843;DHT22;3460;52.028;8.916;2023-03-01T02:47:06;-3.90;99.90
6843;DHT22;3460;52.028;8.916;2023-03-01T02:49:35;-3.80;99.90
6843;DHT22;3460;52.028;8.916;2023-03-01T02:52:34;-3.80;99.90
6843;DHT22;3460;52.028;8.916;2023-03-01T02:55:08;-3.80;99.90
6843;DHT22;3460;52.028;8.916;2023-03-01T02:57:38;-3.80;99.90
6843;DHT22;3460;52.028;8.916;2023-03-01T03:00:09;-3.80;99.90
6843;DHT22;3460;52.028;8.916;2023-03-01T03:02:46;-3.80;99.90
6843;DHT22;3460;52.028;8.916;2023-03-01T03:05:14;-3.90;99.90
6843;DHT22;3460;52.028;8.916;2023-03-01T03:07:43;-3.90;99.90
6843;DHT22;3460;52.028;8.916;2023-03-01T03:10:13;-3.90;99.90
6843;DHT22;3460;52.028;8.916;2023-03-01T03:12:41;-3.90;99.90
6843;DHT22;3460;52.028;8.916;2023-03-01T03:15:09;-3.90;99.90
6843;DHT22;3460;52.028;8.916;2023-03-01T03:17:39;-4.00;99.90
6843;DHT22;3460;52.028;8.916;2023-03-01T03:20:12;-4.10;99.90
6843;DHT22;3460;52.028;8.916;2023-03-01T03:22:44;-4.10;99.90
6843;DHT22;3460;52.028;8.916;2023-03-01T03:25:11;-4.10;99.90
6843;DHT22;3460;52.028;8.916;2023-03-01T03:27:39;-4.20;99.90
6843;DHT22;3460;52.028;8.916;2023-03-01T03:30:07;-4.20;99.90
6843;DHT22;3460;52.028;8.916;2023-03-01T03:32:35;-4.20;99.90
6843;DHT22;3460;52.028;8.916;2023-03-01T03:35:02;-4.20;99.90
6843;DHT22;3460;52.028;8.916;2023-03-01T03:37:36;-4.30;99.90
6843;DHT22;3460;52.028;8.916;2023-03-01T03:40:20;-4.30;99.90
6843;DHT22;3460;52.028;8.916;2023-03-01T03:42:47;-4.30;99.90
6843;DHT22;3460;52.028;8.916;2023-03-01T03:45:14;-4.40;99.90
6843;DHT22;3460;52.028;8.916;2023-03-01T03:47:41;-4.40;99.90
6843;DHT22;3460;52.028;8.916;2023-03-01T03:50:09;-4.40;99.90
6843;DHT22;3460;52.028;8.916;2023-03-01T03:52:38;-4.40;99.90
6843;DHT22;3460;52.028;8.916;2023-03-01T03:55:06;-4.40;99.90
6843;DHT22;3460;52.028;8.916;2023-03-01T03:57:37;-4.40;99.90
6843;DHT22;3460;52.028;8.916;2023-03-01T04:00:05;-4.40;99.90
6843;DHT22;3460;52.028;8.916;2023-03-01T04:02:38;-4.50;99.90
6843;DHT22;3460;52.028;8.916;2023-03-01T04:05:06;-4.50;99.90
6843;DHT22;3460;52.028;8.916;2023-03-01T04:07:33;-4.50;99.90
6843;DHT22;3460;52.028;8.916;2023-03-01T04:10:01;-4.50;99.90
6843;DHT22;3460;52.028;8.916;2023-03-01T04:12:28;-4.40;99.90
6843;DHT22;3460;52.028;8.916;2023-03-01T04:14:55;-4.50;99.90
6843;DHT22;3460;52.028;8.916;2023-03-01T04:17:22;-4.40;99.90
6843;DHT22;3460;52.028;8.916;2023-03-01T04:19:48;-4.40;99.90
6843;DHT22;3460;52.028;8.916;2023-03-01T04:22:15;-4.40;99.90
6843;DHT22;3460;52.028;8.916;2023-03-01T04:24:43;-4.30;99.90
6843;DHT22;3460;52.028;8.916;2023-03-01T04:27:11;-4.30;99.90
6843;DHT22;3460;52.028;8.916;2023-03-01T04:29:38;-4.30;99.90
6843;DHT22;3460;52.028;8.916;2023-03-01T04:32:05;-4.30;99.90
6843;DHT22;3460;52.028;8.916;2023-03-01T04:34:32;-4.30;99.90
6843;DHT22;3460;52.028;8.916;2023-03-01T04:36:59;-4.30;99.90
6843;DHT22;3460;52.028;8.916;2023-03-01T04:39:25;-4.40;99.90
6843;DHT22;3460;52.028;8.916;2023-03-01T04:41:52;-4.40;99.90
6843;DHT22;3460;52.028;8.916;2023-03-01T04:44:20;-4.50;99.90
6843;DHT22;3460;52.028;8.916;2023-03-01T04:46:48;-4.50;99.90
6843;DHT22;3460;52.028;8.916;2023-03-01T04:49:16;-4.60;99.90
6843;DHT22;3460;52.028;8.916;2023-03-01T04:51:43;-4.60;99.90
6843;DHT22;3460;52.028;8.916;2023-03-01T04:54:09;-4.60;99.90
6843;DHT22;3460;52.028;8.916;2023-03-01T04:56:36;-4.60;99.90
6843;DHT22;3460;52.028;8.916;2023-03-01T04:59:03;-4.60;99.90
6843;DHT22;3460;52.028;8.916;2023-03-01T05:01:32;-4.60;99.90
6843;DHT22;3460;52.028;8.916;2023-03-01T05:04:01;-4.60;99.90
6843;DHT22;3460;52.028;8.916;2023-03-01T05:06:31;-4.60;99.90
6843;DHT22;3460;52.028;8.916;2023-03-01T05:08:58;-4.60;99.90
6843;DHT22;3460;52.028;8.916;2023-03-01T05:11:25;-4.70;99.90
6843;DHT22;3460;52.028;8.916;2023-03-01T05:13:53;-4.70;99.90
6843;DHT22;3460;52.028;8.916;2023-03-01T05:16:20;-4.70;99.90
6843;DHT22;3460;52.028;8.916;2023-03-01T05:18:49;-4.70;99.90
6843;DHT22;3460;52.028;8.916;2023-03-01T05:21:17;-4.80;99.90
6843;DHT22;3460;52.028;8.916;2023-03-01T05:23:44;-4.80;99.90
6843;DHT22;3460;52.028;8.916;2023-03-01T05:26:12;-4.80;99.90
6843;DHT22;3460;52.028;8.916;2023-03-01T05:28:39;-4.80;99.90
6843;DHT22;3460;52.028;8.916;2023-03-01T05:31:06;-4.90;99.90
6843;DHT22;3460;52.028;8.916;2023-03-01T05:33:35;-4.90;99.90
6843;DHT22;3460;52.028;8.916;2023-03-01T05:36:05;-4.90;99.90
6843;DHT22;3460;52.028;8.916;2023-03-01T05:38:33;-4.90;99.90
6843;DHT22;3460;52.028;8.916;2023-03-01T05:41:00;-4.90;99.90
6843;DHT22;3460;52.028;8.916;2023-03-01T05:43:30;-4.90;99.90
6843;DHT22;3460;52.028;8.916;2023-03-01T05:45:59;-4.90;99.90
6843;DHT22;3460;52.028;8.916;2023-03-01T05:48:26;-4.90;99.90
6843;DHT22;3460;52.028;8.916;2023-03-01T05:50:53;-4.90;99.90
6843;DHT22;3460;52.028;8.916;2023-03-01T05:53:21;-4.90;99.90
6843;DHT22;3460;52.028;8.916;2023-03-01T05:55:48;-4.90;99.90
6843;DHT22;3460;52.028;8.916;2023-03-01T05:58:17;-4.90;99.90
6843;DHT22;3460;52.028;8.916;2023-03-01T06:00:46;-4.90;99.90
6843;DHT22;3460;52.028;8.916;2023-03-01T06:03:14;-4.90;99.90
6843;DHT22;3460;52.028;8.916;2023-03-01T06:05:41;-4.90;99.90
6843;DHT22;3460;52.028;8.916;2023-03-01T06:08:10;-5.00;99.90
6843;DHT22;3460;52.028;8.916;2023-03-01T06:10:39;-4.90;99.90
6843;DHT22;3460;52.028;8.916;2023-03-01T06:13:06;-4.90;99.90
6843;DHT22;3460;52.028;8.916;2023-03-01T06:15:33;-5.00;99.90
6843;DHT22;3460;52.028;8.916;2023-03-01T06:17:59;-5.00;99.90
6843;DHT22;3460;52.028;8.916;2023-03-01T06:20:28;-5.00;99.90
6843;DHT22;3460;52.028;8.916;2023-03-01T06:22:55;-5.00;99.90
6843;DHT22;3460;52.028;8.916;2023-03-01T06:25:24;-5.00;99.90
6843;DHT22;3460;52.028;8.916;2023-03-01T06:27:52;-5.00;99.90
6843;DHT22;3460;52.028;8.916;2023-03-01T06:30:21;-4.90;99.90
6843;DHT22;3460;52.028;8.916;2023-03-01T06:32:48;-4.90;99.90
6843;DHT22;3460;52.028;8.916;2023-03-01T06:35:16;-4.90;99.90
6843;DHT22;3460;52.028;8.916;2023-03-01T06:37:44;-4.90;99.90
6843;DHT22;3460;52.028;8.916;2023-03-01T06:40:12;-4.80;99.90
6843;DHT22;3460;52.028;8.916;2023-03-01T06:42:41;-4.80;99.90
6843;DHT22;3460;52.028;8.916;2023-03-01T06:45:10;-4.70;99.90
6843;DHT22;3460;52.028;8.916;2023-03-01T06:47:37;-4.70;99.90
6843;DHT22;3460;52.028;8.916;2023-03-01T06:50:04;-4.70;99.90
6843;DHT22;3460;52.028;8.916;2023-03-01T06:52:31;-4.60;99.90
6843;DHT22;3460;52.028;8.916;2023-03-01T06:54:58;-4.60;99.90
6843;DHT22;3460;52.028;8.916;2023-03-01T06:57:25;-4.60;99.90
6843;DHT22;3460;52.028;8.916;2023-03-01T06:59:51;-4.60;99.90
6843;DHT22;3460;52.028;8.916;2023-03-01T07:02:20;-4.50;99.90
6843;DHT22;3460;52.028;8.916;2023-03-01T07:04:48;-4.50;99.90
6843;DHT22;3460;52.028;8.916;2023-03-01T07:07:15;-4.40;99.90
6843;DHT22;3460;52.028;8.916;2023-03-01T07:09:43;-4.30;99.90
6843;DHT22;3460;52.028;8.916;2023-03-01T07:12:10;-4.20;99.90
6843;DHT22;3460;52.028;8.916;2023-03-01T07:14:37;-4.10;99.90
6843;DHT22;3460;52.028;8.916;2023-03-01T07:17:04;-4.10;99.90
6843;DHT22;3460;52.028;8.916;2023-03-01T07:19:32;-4.00;99.90
6843;DHT22;3460;52.028;8.916;2023-03-01T07:21:58;-4.00;99.90
6843;DHT22;3460;52.028;8.916;2023-03-01T07:24:25;-3.90;99.90
6843;DHT22;3460;52.028;8.916;2023-03-01T07:26:52;-3.80;99.90
6843;DHT22;3460;52.028;8.916;2023-03-01T07:29:19;-3.80;99.90
6843;DHT22;3460;52.028;8.916;2023-03-01T07:31:46;-3.70;99.90
6843;DHT22;3460;52.028;8.916;2023-03-01T07:34:13;-3.70;99.90
6843;DHT22;3460;52.028;8.916;2023-03-01T07:36:41;-3.60;99.90
6843;DHT22;3460;52.028;8.916;2023-03-01T07:39:11;-3.50;99.90
6843;DHT22;3460;52.028;8.916;2023-03-01T07:41:38;-3.40;99.90
6843;DHT22;3460;52.028;8.916;2023-03-01T07:44:05;-3.30;99.90
6843;DHT22;3460;52.028;8.916;2023-03-01T07:46:32;-3.20;99.90
6843;DHT22;3460;52.028;8.916;2023-03-01T07:48:59;-3.10;99.90
6843;DHT22;3460;52.028;8.916;2023-03-01T07:51:26;-3.00;99.90
6843;DHT22;3460;52.028;8.916;2023-03-01T07:53:54;-2.80;99.90
6843;DHT22;3460;52.028;8.916;2023-03-01T07:56:21;-2.60;99.90
6843;DHT22;3460;52.028;8.916;2023-03-01T07:58:48;-2.40;99.90
6843;DHT22;3460;52.028;8.916;2023-03-01T08:01:16;-2.30;99.90
6843;DHT22;3460;52.028;8.916;2023-03-01T08:03:43;-2.10;99.90
6843;DHT22;3460;52.028;8.916;2023-03-01T08:06:12;-2.00;99.90
6843;DHT22;3460;52.028;8.916;2023-03-01T08:08:39;-1.90;99.90
6843;DHT22;3460;52.028;8.916;2023-03-01T08:11:09;-1.70;99.90
6843;DHT22;3460;52.028;8.916;2023-03-01T08:13:36;-1.50;99.90
6843;DHT22;3460;52.028;8.916;2023-03-01T08:16:04;-1.40;99.90
6843;DHT22;3460;52.028;8.916;2023-03-01T08:18:31;-1.10;99.90
6843;DHT22;3460;52.028;8.916;2023-03-01T08:21:02;-0.80;99.90
6843;DHT22;3460;52.028;8.916;2023-03-01T08:23:28;-0.50;99.90
6843;DHT22;3460;52.028;8.916;2023-03-01T08:26:03;-0.30;99.90
6843;DHT22;3460;52.028;8.916;2023-03-01T08:28:32;-0.20;99.90
6843;DHT22;3460;52.028;8.916;2023-03-01T08:30:59;0.10;99.90
6843;DHT22;3460;52.028;8.916;2023-03-01T08:33:26;0.30;99.90
6843;DHT22;3460;52.028;8.916;2023-03-01T08:36:02;0.50;99.90
6843;DHT22;3460;52.028;8.916;2023-03-01T08:38:29;0.70;99.90
6843;DHT22;3460;52.028;8.916;2023-03-01T08:40:59;0.90;99.90
6843;DHT22;3460;52.028;8.916;2023-03-01T08:43:26;1.00;99.90
6843;DHT22;3460;52.028;8.916;2023-03-01T08:45:55;1.10;99.90
6843;DHT22;3460;52.028;8.916;2023-03-01T08:48:21;1.40;99.90
6843;DHT22;3460;52.028;8.916;2023-03-01T08:50:48;1.50;99.90
6843;DHT22;3460;52.028;8.916;2023-03-01T08:53:15;1.70;99.90
6843;DHT22;3460;52.028;8.916;2023-03-01T08:55:42;2.00;99.90
6843;DHT22;3460;52.028;8.916;2023-03-01T08:58:09;2.10;99.90
6843;DHT22;3460;52.028;8.916;2023-03-01T09:00:35;2.30;99.90
6843;DHT22;3460;52.028;8.916;2023-03-01T09:03:04;2.50;99.90
6843;DHT22;3460;52.028;8.916;2023-03-01T09:05:31;2.70;99.90
6843;DHT22;3460;52.028;8.916;2023-03-01T09:07:58;2.80;99.90
6843;DHT22;3460;52.028;8.916;2023-03-01T09:10:25;3.00;99.90
6843;DHT22;3460;52.028;8.916;2023-03-01T09:12:52;3.10;99.90
6843;DHT22;3460;52.028;8.916;2023-03-01T09:15:19;3.10;99.90
6843;DHT22;3460;52.028;8.916;2023-03-01T09:17:46;3.20;99.90
6843;DHT22;3460;52.028;8.916;2023-03-01T09:20:14;3.40;99.90
6843;DHT22;3460;52.028;8.916;2023-03-01T09:22:41;3.40;99.90
6843;DHT22;3460;52.028;8.916;2023-03-01T09:25:08;3.50;99.90
6843;DHT22;3460;52.028;8.916;2023-03-01T09:27:35;3.60;99.90
6843;DHT22;3460;52.028;8.916;2023-03-01T09:30:02;3.70;99.90
6843;DHT22;3460;52.028;8.916;2023-03-01T09:32:30;4.00;99.90
6843;DHT22;3460;52.028;8.916;2023-03-01T09:34:57;3.80;99.90
6843;DHT22;3460;52.028;8.916;2023-03-01T09:37:32;3.80;99.90
6843;DHT22;3460;52.028;8.916;2023-03-01T09:39:59;3.80;99.90
6843;DHT22;3460;52.028;8.916;2023-03-01T09:42:27;3.70;99.90
6843;DHT22;3460;52.028;8.916;2023-03-01T09:44:59;3.80;99.90
6843;DHT22;3460;52.028;8.916;2023-03-01T09:47:30;4.10;99.90
6843;DHT22;3460;52.028;8.916;2023-03-01T09:50:02;4.10;99.90
6843;DHT22;3460;52.028;8.916;2023-03-01T09:52:38;4.10;99.90
6843;DHT22;3460;52.028;8.916;2023-03-01T09:55:11;4.10;99.90
6843;DHT22;3460;52.028;8.916;2023-03-01T09:57:43;4.00;99.90
6843;DHT22;3460;52.028;8.916;2023-03-01T10:00:18;3.90;99.90
6843;DHT22;3460;52.028;8.916;2023-03-01T10:02:52;4.00;99.90
6843;DHT22;3460;52.028;8.916;2023-03-01T10:05:36;3.80;99.90
6843;DHT22;3460;52.028;8.916;2023-03-01T10:08:24;3.70;99.90
6843;DHT22;3460;52.028;8.916;2023-03-01T10:10:53;3.80;99.90
6843;DHT22;3460;52.028;8.916;2023-03-01T10:13:23;3.80;99.90
6843;DHT22;3460;52.028;8.916;2023-03-01T10:15:54;3.80;99.90
6843;DHT22;3460;52.028;8.916;2023-03-01T10:18:26;3.70;99.90
6843;DHT22;3460;52.028;8.916;2023-03-01T10:20:56;3.70;99.90
6843;DHT22;3460;52.028;8.916;2023-03-01T10:23:27;3.50;99.90
6843;DHT22;3460;52.028;8.916;2023-03-01T10:26:06;3.60;99.90
6843;DHT22;3460;52.028;8.916;2023-03-01T10:28:44;3.80;99.90
6843;DHT22;3460;52.028;8.916;2023-03-01T10:31:15;3.90;99.90
6843;DHT22;3460;52.028;8.916;2023-03-01T10:33:45;4.10;99.90
6843;DHT22;3460;52.028;8.916;2023-03-01T10:36:13;4.20;99.90
6843;DHT22;3460;52.028;8.916;2023-03-01T10:38:52;4.10;99.90
6843;DHT22;3460;52.028;8.916;2023-03-01T10:41:20;4.00;99.90
6843;DHT22;3460;52.028;8.916;2023-03-01T10:43:51;4.00;99.90
6843;DHT22;3460;52.028;8.916;2023-03-01T10:46:23;4.10;99.90
6843;DHT22;3460;52.028;8.916;2023-03-01T10:49:06;4.20;99.90
6843;DHT22;3460;52.028;8.916;2023-03-01T10:51:33;4.30;99.90
6843;DHT22;3460;52.028;8.916;2023-03-01T10:54:02;4.40;99.90
6843;DHT22;3460;52.028;8.916;2023-03-01T10:56:46;4.40;99.90
6843;DHT22;3460;52.028;8.916;2023-03-01T10:59:27;4.30;99.90
6843;DHT22;3460;52.028;8.916;2023-03-01T11:02:21;4.30;99.90
6843;DHT22;3460;52.028;8.916;2023-03-01T11:04:59;4.60;99.90
6843;DHT22;3460;52.028;8.916;2023-03-01T11:07:26;4.60;99.90
6843;DHT22;3460;52.028;8.916;2023-03-01T11:09:55;4.60;99.90
6843;DHT22;3460;52.028;8.916;2023-03-01T11:12:22;4.60;99.90
6843;DHT22;3460;52.028;8.916;2023-03-01T11:14:50;4.50;99.90
6843;DHT22;3460;52.028;8.916;2023-03-01T11:17:21;4.50;99.90
6843;DHT22;3460;52.028;8.916;2023-03-01T11:20:00;4.30;99.90
6843;DHT22;3460;52.028;8.916;2023-03-01T11:22:28;4.40;99.90
6843;DHT22;3460;52.028;8.916;2023-03-01T11:24:58;4.50;99.90
6843;DHT22;3460;52.028;8.916;2023-03-01T11:27:27;4.50;99.90
6843;DHT22;3460;52.028;8.916;2023-03-01T11:29:59;4.50;99.90
6843;DHT22;3460;52.028;8.916;2023-03-01T11:32:32;4.50;99.90
6843;DHT22;3460;52.028;8.916;2023-03-01T11:35:02;4.50;99.90
6843;DHT22;3460;52.028;8.916;2023-03-01T11:37:36;4.60;99.90
6843;DHT22;3460;52.028;8.916;2023-03-01T11:40:13;4.70;99.90
6843;DHT22;3460;52.028;8.916;2023-03-01T11:42:50;4.70;99.90
6843;DHT22;3460;52.028;8.916;2023-03-01T11:45:23;4.70;99.90
6843;DHT22;3460;52.028;8.916;2023-03-01T11:48:19;4.50;99.90
6843;DHT22;3460;52.028;8.916;2023-03-01T11:50:52;4.70;99.90
6843;DHT22;3460;52.028;8.916;2023-03-01T11:53:39;4.80;99.90
6843;DHT22;3460;52.028;8.916;2023-03-01T11:56:25;4.80;99.90
6843;DHT22;3460;52.028;8.916;2023-03-01T11:59:06;4.80;99.90
6843;DHT22;3460;52.028;8.916;2023-03-01T12:01:48;4.90;99.90
6843;DHT22;3460;52.028;8.916;2023-03-01T12:04:44;4.90;99.90
6843;DHT22;3460;52.028;8.916;2023-03-01T12:07:18;5.10;99.90
6843;DHT22;3460;52.028;8.916;2023-03-01T12:12:45;5.20;99.90
6843;DHT22;3460;52.028;8.916;2023-03-01T12:18:32;5.30;99.90
6843;DHT22;3460;52.028;8.916;2023-03-01T12:21:12;5.10;99.90
6843;DHT22;3460;52.028;8.916;2023-03-01T12:24:17;5.30;99.90
6843;DHT22;3460;52.028;8.916;2023-03-01T12:26:59;5.50;99.90
6843;DHT22;3460;52.028;8.916;2023-03-01T12:29:34;5.30;99.90
6843;DHT22;3460;52.028;8.916;2023-03-01T12:32:25;5.30;99.90
6843;DHT22;3460;52.028;8.916;2023-03-01T12:35:29;5.50;99.90
6843;DHT22;3460;52.028;8.916;2023-03-01T12:38:10;5.40;99.90
6843;DHT22;3460;52.028;8.916;2023-03-01T12:40:51;5.30;99.90
6843;DHT22;3460;52.028;8.916;2023-03-01T12:43:30;5.40;99.90
6843;DHT22;3460;52.028;8.916;2023-03-01T12:46:26;5.50;99.90
6843;DHT22;3460;52.028;8.916;2023-03-01T12:49:04;5.70;99.90
6843;DHT22;3460;52.028;8.916;2023-03-01T12:51:34;5.60;99.90
6843;DHT22;3460;52.028;8.916;2023-03-01T12:54:07;5.50;99.90
6843;DHT22;3460;52.028;8.916;2023-03-01T12:56:38;5.50;99.90
6843;DHT22;3460;52.028;8.916;2023-03-01T12:59:13;5.60;99.90
6843;DHT22;3460;52.028;8.916;2023-03-01T13:01:49;5.70;99.90
6843;DHT22;3460;52.028;8.916;2023-03-01T13:04:31;5.70;99.90
6843;DHT22;3460;52.028;8.916;2023-03-01T13:07:21;5.60;99.90
6843;DHT22;3460;52.028;8.916;2023-03-01T13:09:55;5.50;99.90
6843;DHT22;3460;52.028;8.916;2023-03-01T13:12:51;5.60;99.90
6843;DHT22;3460;52.028;8.916;2023-03-01T13:15:34;5.80;99.90
6843;DHT22;3460;52.028;8.916;2023-03-01T13:18:04;5.80;99.90
6843;DHT22;3460;52.028;8.916;2023-03-01T13:20:53;5.80;99.90
6843;DHT22;3460;52.028;8.916;2023-03-01T13:23:29;5.90;99.90
6843;DHT22;3460;52.028;8.916;2023-03-01T13:26:01;5.80;99.90
6843;DHT22;3460;52.028;8.916;2023-03-01T13:28:47;5.80;99.90
6843;DHT22;3460;52.028;8.916;2023-03-01T13:34:52;5.70;99.90
6843;DHT22;3460;52.028;8.916;2023-03-01T13:37:26;5.60;99.90
6843;DHT22;3460;52.028;8.916;2023-03-01T13:39:56;5.80;99.90
6843;DHT22;3460;52.028;8.916;2023-03-01T13:42:39;5.80;99.90
6843;DHT22;3460;52.028;8.916;2023-03-01T13:45:22;5.90;99.90
6843;DHT22;3460;52.028;8.916;2023-03-01T13:47:55;5.80;99.90
6843;DHT22;3460;52.028;8.916;2023-03-01T13:50:29;5.90;99.90
6843;DHT22;3460;52.028;8.916;2023-03-01T13:53:02;5.90;99.90
6843;DHT22;3460;52.028;8.916;2023-03-01T13:55:37;5.70;99.90
6843;DHT22;3460;52.028;8.916;2023-03-01T13:58:13;5.70;99.90
6843;DHT22;3460;52.028;8.916;2023-03-01T14:00:41;5.70;99.90
6843;DHT22;3460;52.028;8.916;2023-03-01T14:03:11;5.80;99.90
6843;DHT22;3460;52.028;8.916;2023-03-01T14:05:42;5.80;99.90
6843;DHT22;3460;52.028;8.916;2023-03-01T14:08:21;5.90;99.90
6843;DHT22;3460;52.028;8.916;2023-03-01T14:11:13;5.70;99.90
6843;DHT22;3460;52.028;8.916;2023-03-01T14:14:01;5.80;99.90
6843;DHT22;3460;52.028;8.916;2023-03-01T14:16:37;5.90;99.90
6843;DHT22;3460;52.028;8.916;2023-03-01T14:19:15;5.90;99.90
6843;DHT22;3460;52.028;8.916;2023-03-01T14:21:46;5.90;99.90
6843;DHT22;3460;52.028;8.916;2023-03-01T14:24:21;6.00;99.90
6843;DHT22;3460;52.028;8.916;2023-03-01T14:26:49;6.00;99.90
6843;DHT22;3460;52.028;8.916;2023-03-01T14:29:24;6.00;99.90
6843;DHT22;3460;52.028;8.916;2023-03-01T14:31:51;6.00;99.90
6843;DHT22;3460;52.028;8.916;2023-03-01T14:34:20;6.00;99.90
6843;DHT22;3460;52.028;8.916;2023-03-01T14:36:49;6.00;99.90
6843;DHT22;3460;52.028;8.916;2023-03-01T14:39:18;6.10;99.90
6843;DHT22;3460;52.028;8.916;2023-03-01T14:41:45;6.10;99.90
6843;DHT22;3460;52.028;8.916;2023-03-01T14:44:15;6.20;99.90
6843;DHT22;3460;52.028;8.916;2023-03-01T14:46:44;6.20;99.90
6843;DHT22;3460;52.028;8.916;2023-03-01T14:49:14;6.20;99.90
6843;DHT22;3460;52.028;8.916;2023-03-01T14:51:51;6.10;99.90
6843;DHT22;3460;52.028;8.916;2023-03-01T14:54:24;6.00;99.90
6843;DHT22;3460;52.028;8.916;2023-03-01T14:56:53;6.00;99.90
6843;DHT22;3460;52.028;8.916;2023-03-01T14:59:22;6.00;99.90
6843;DHT22;3460;52.028;8.916;2023-03-01T15:01:50;6.00;99.90
6843;DHT22;3460;52.028;8.916;2023-03-01T15:04:18;5.90;99.90
6843;DHT22;3460;52.028;8.916;2023-03-01T15:06:46;6.00;99.90
6843;DHT22;3460;52.028;8.916;2023-03-01T15:09:15;6.00;99.90
6843;DHT22;3460;52.028;8.916;2023-03-01T15:11:44;6.00;99.90
6843;DHT22;3460;52.028;8.916;2023-03-01T15:14:40;6.00;99.90
6843;DHT22;3460;52.028;8.916;2023-03-01T15:17:29;6.00;99.90
6843;DHT22;3460;52.028;8.916;2023-03-01T15:19:57;6.00;99.90
6843;DHT22;3460;52.028;8.916;2023-03-01T15:22:26;5.90;99.90
6843;DHT22;3460;52.028;8.916;2023-03-01T15:24:53;5.80;99.90
6843;DHT22;3460;52.028;8.916;2023-03-01T15:27:23;5.80;99.90
6843;DHT22;3460;52.028;8.916;2023-03-01T15:29:53;5.80;99.90
6843;DHT22;3460;52.028;8.916;2023-03-01T15:32:27;5.70;99.90
6843;DHT22;3460;52.028;8.916;2023-03-01T15:34:54;5.70;99.90
6843;DHT22;3460;52.028;8.916;2023-03-01T15:37:40;5.70;99.90
6843;DHT22;3460;52.028;8.916;2023-03-01T15:40:18;5.70;99.90
6843;DHT22;3460;52.028;8.916;2023-03-01T15:42:47;5.70;99.90
6843;DHT22;3460;52.028;8.916;2023-03-01T15:45:22;5.70;99.90
6843;DHT22;3460;52.028;8.916;2023-03-01T15:47:50;5.70;99.90
6843;DHT22;3460;52.028;8.916;2023-03-01T15:50:21;5.60;99.90
6843;DHT22;3460;52.028;8.916;2023-03-01T15:52:49;5.60;99.90
6843;DHT22;3460;52.028;8.916;2023-03-01T15:55:18;5.60;99.90
6843;DHT22;3460;52.028;8.916;2023-03-01T15:57:47;5.60;99.90
6843;DHT22;3460;52.028;8.916;2023-03-01T16:00:16;5.50;99.90
6843;DHT22;3460;52.028;8.916;2023-03-01T16:02:45;5.50;99.90
6843;DHT22;3460;52.028;8.916;2023-03-01T16:05:19;5.50;99.90
6843;DHT22;3460;52.028;8.916;2023-03-01T16:07:46;5.50;99.90
6843;DHT22;3460;52.028;8.916;2023-03-01T16:10:13;5.50;99.90
6843;DHT22;3460;52.028;8.916;2023-03-01T16:12:40;5.50;99.90
6843;DHT22;3460;52.028;8.916;2023-03-01T16:15:15;5.40;99.90
6843;DHT22;3460;52.028;8.916;2023-03-01T16:17:42;5.40;99.90
6843;DHT22;3460;52.028;8.916;2023-03-01T16:20:10;5.40;99.90
6843;DHT22;3460;52.028;8.916;2023-03-01T16:22:37;5.30;99.90
6843;DHT22;3460;52.028;8.916;2023-03-01T16:25:04;5.30;99.90
6843;DHT22;3460;52.028;8.916;2023-03-01T16:27:33;5.20;99.90
6843;DHT22;3460;52.028;8.916;2023-03-01T16:30:00;5.20;99.90
6843;DHT22;3460;52.028;8.916;2023-03-01T16:32:28;5.10;99.90
6843;DHT22;3460;52.028;8.916;2023-03-01T16:34:55;5.10;99.90
6843;DHT22;3460;52.028;8.916;2023-03-01T16:37:23;5.10;99.90
6843;DHT22;3460;52.028;8.916;2023-03-01T16:39:50;5.00;99.90
6843;DHT22;3460;52.028;8.916;2023-03-01T16:42:18;5.00;99.90